Mirage, Colorado
Current Conditions -  °F | °C
As of 7:49 AM on Thursday 23 Oct 2014 (Local Time) from K04V Reporting Station
Clear Clear  
Wind Chill: -1°   Ceiling: Unl
Heat Index:   Visibility: 10mi
Dew Point: -1°   Wind: 13mph
Humidity: 75%   Direction: 310°NW
Pressure: 30.36"   Gusts: NA
Location:  37.9777°N, 105.779°W
Report Text: K04V 231349Z AUTO 31011KT 10SM CLR 03/M01 A3036 RMK AO2
Loading
Personal Weather Stations






























Interactive Weather Map
Tropical Storm Tracking
New forecast layout! Learn more

10-Day Weather Forecast

Advertisements
Track Severe Weather on mobile